»·PEaware :: JBU4944 KSMF-KSNA

JBU4944 :: KSMF-KSNA

FLIGHT INFORMATION

Flight Status: Arrived
Operator:
JetBlue Airways
More flights by this operator :: More flights under this callsign
Pilot: Skye D. (10623)
Aircraft: AIRBUS A320
(A320)
More flights by this aircraft type
Origin: KSMF Sacramento Intl
United States
Destination: KSNA John Wayne-Orange Co
United States
More flights between these airports :: More routes between these airports
Route: +FTHIL2 FRA REBRG OHSEA1
File this flight plan on PilotEdge
Remarks:
Altitude:
(Current/Filed)
37,000ft
Speed:
(Current/Filed)
447kts
Departed: 07-Feb-18 02:42 PM
Arrived: 07-Feb-18 03:45 PM
Distance/Time
Traveled:
351nm/1:03
Distance/Time
To Go:
Arrived

Flight Plot

Page will automatically refresh every two minutes.

Flight plan parsing failed; only flown route is shown


Map Options




Map Legend


Flown Route
Filed Route
Departure Airport
Arrival Airport
Navaid (VOR, NDB)
Fix

Horizontal Profiles

Position Reports

Time Latitude Longitude Heading Altitude Ground
Speed
07-Feb-18 14:18 38.693977 -121.586974 270 33ft 0kts
07-Feb-18 14:20 38.693977 -121.586974 270 33ft 0kts
07-Feb-18 14:21 38.693977 -121.586974 270 33ft 0kts
07-Feb-18 14:21 38.693977 -121.586974 270 33ft 0kts
07-Feb-18 14:26 38.693977 -121.586974 270 33ft 0kts
07-Feb-18 14:27 38.693977 -121.586974 270 33ft 0kts
07-Feb-18 14:28 38.693977 -121.586974 270 33ft 0kts
07-Feb-18 14:29 38.693977 -121.586974 270 33ft 0kts
07-Feb-18 14:30 38.693977 -121.586974 270 33ft 0kts
07-Feb-18 14:31 38.693977 -121.586974 270 33ft 0kts
07-Feb-18 14:32 38.693977 -121.586974 270 33ft 0kts
07-Feb-18 14:33 38.693977 -121.586974 270 33ft 0kts
07-Feb-18 14:34 38.693977 -121.586974 270 33ft 0kts
07-Feb-18 14:35 38.693977 -121.586974 270 33ft 0kts
07-Feb-18 14:36 38.693977 -121.586974 270 33ft 0kts
07-Feb-18 14:37 38.693973 -121.586508 270 33ft 2kts
07-Feb-18 14:38 38.694010 -121.585766 265 33ft 2kts
07-Feb-18 14:39 38.694021 -121.585570 273 33ft 0kts
07-Feb-18 14:40 38.694290 -121.586091 333 33ft 19kts
07-Feb-18 14:41 38.696188 -121.586190 358 33ft 0kts
07-Feb-18 14:42 38.696257 -121.586191 357 33ft 1kts
07-Feb-18 14:43 38.696971 -121.583187 61 33ft 11kts
07-Feb-18 14:44 38.701179 -121.582801 0 33ft 21kts
07-Feb-18 14:45 38.706540 -121.582665 17 33ft 14kts
07-Feb-18 14:46 38.707011 -121.581574 89 33ft 0kts
07-Feb-18 14:47 38.706443 -121.580102 178 33ft 12kts
07-Feb-18 14:48 38.675615 -121.579844 167 1432ft 171kts
07-Feb-18 14:49 38.640577 -121.528558 114 3168ft 265kts
07-Feb-18 14:50 38.612170 -121.446253 119 6833ft 281kts
07-Feb-18 14:51 38.572439 -121.367005 122 10080ft 296kts
07-Feb-18 14:52 38.525838 -121.278327 123 12213ft 343kts
07-Feb-18 14:53 38.469069 -121.172520 123 14957ft 377kts
07-Feb-18 14:54 38.409232 -121.061654 123 17783ft 393kts
07-Feb-18 14:55 38.348386 -120.949323 123 20015ft 408kts
07-Feb-18 14:56 38.283678 -120.830287 123 21980ft 423kts
07-Feb-18 14:57 38.216037 -120.706328 122 24077ft 436kts
07-Feb-18 14:58 38.146706 -120.579728 122 26185ft 448kts
07-Feb-18 14:59 38.075361 -120.449977 122 28039ft 459kts
07-Feb-18 15:00 38.002693 -120.319617 123 29547ft 470kts
07-Feb-18 15:01 37.919367 -120.197764 148 31223ft 473kts
07-Feb-18 15:02 37.811022 -120.116070 148 32702ft 471kts
07-Feb-18 15:03 37.700090 -120.033493 148 34063ft 467kts
07-Feb-18 15:04 37.588635 -119.950870 148 35200ft 466kts
07-Feb-18 15:05 37.477424 -119.868727 148 36233ft 465kts
07-Feb-18 15:06 37.366456 -119.787048 148 37174ft 464kts
07-Feb-18 15:07 37.254912 -119.705227 148 37258ft 475kts
07-Feb-18 15:08 37.141812 -119.622565 149 37249ft 474kts
07-Feb-18 15:09 37.015188 -119.597857 180 37248ft 474kts
07-Feb-18 15:10 36.886251 -119.599486 181 37247ft 473kts
07-Feb-18 15:11 36.755108 -119.601731 181 37248ft 474kts
07-Feb-18 15:12 36.624522 -119.603981 180 37248ft 472kts
07-Feb-18 15:13 36.493513 -119.606231 180 37248ft 472kts
07-Feb-18 15:14 36.362738 -119.608470 180 37248ft 472kts
07-Feb-18 15:15 36.232004 -119.610701 180 37249ft 472kts
07-Feb-18 15:16 36.101067 -119.612928 180 37249ft 472kts
07-Feb-18 15:17 35.970846 -119.616937 188 37249ft 472kts
07-Feb-18 15:18 35.850135 -119.641725 189 37230ft 472kts
07-Feb-18 15:19 35.721365 -119.667864 189 37229ft 473kts
07-Feb-18 15:20 35.598597 -119.646201 156 37228ft 472kts
07-Feb-18 15:21 35.479528 -119.582039 155 37230ft 472kts
07-Feb-18 15:22 35.360157 -119.516476 154 37222ft 472kts
07-Feb-18 15:23 35.241030 -119.451227 154 37221ft 472kts
07-Feb-18 15:24 35.124191 -119.387436 154 37221ft 460kts
07-Feb-18 15:26 35.008730 -119.324105 154 37221ft 460kts
07-Feb-18 15:27 34.893765 -119.261529 155 37124ft 462kts
07-Feb-18 15:28 34.780535 -119.199767 155 35860ft 462kts
07-Feb-18 15:29 34.666992 -119.131497 151 34457ft 463kts
07-Feb-18 15:30 34.554159 -119.059670 150 33011ft 466kts
07-Feb-18 15:31 34.442250 -118.987250 150 31075ft 468kts
07-Feb-18 15:32 34.330023 -118.912720 150 28191ft 459kts
07-Feb-18 15:33 34.219775 -118.842743 159 25376ft 448kts
07-Feb-18 15:34 34.106713 -118.797600 160 22691ft 420kts
07-Feb-18 15:35 34.000960 -118.756342 161 20213ft 399kts
07-Feb-18 15:36 33.898818 -118.716850 162 17712ft 381kts
07-Feb-18 15:37 33.799798 -118.678732 162 15251ft 371kts
07-Feb-18 15:38 33.710276 -118.645464 163 13261ft 358kts
07-Feb-18 15:39 33.622643 -118.601082 125 11690ft 344kts
07-Feb-18 15:40 33.615332 -118.492750 81 10450ft 335kts
07-Feb-18 15:41 33.628740 -118.391557 78 9561ft 291kts
07-Feb-18 15:42 33.643025 -118.298512 78 8514ft 286kts
07-Feb-18 15:43 33.657211 -118.206206 78 7471ft 281kts
07-Feb-18 15:44 33.670950 -118.115850 78 6421ft 262kts
07-Feb-18 15:45 33.682289 -118.040920 79 5601ft 215kts
07-Feb-18 15:46 33.691278 -117.981227 79 5170ft 213kts
07-Feb-18 15:47 33.720056 -117.933339 26 4544ft 208kts
07-Feb-18 15:48 33.762966 -117.894686 77 3173ft 218kts
07-Feb-18 15:49 33.738520 -117.841910 169 1590ft 169kts
07-Feb-18 15:50 33.700890 -117.853293 205 574ft 128kts
07-Feb-18 15:51 33.674254 -117.869764 208 64ft 56kts
07-Feb-18 15:52 33.669083 -117.871199 88 64ft 13kts
07-Feb-18 15:53 33.672632 -117.867795 30 64ft 17kts
07-Feb-18 15:54 33.675885 -117.865336 29 64ft 13kts
07-Feb-18 15:55 33.677221 -117.863802 118 64ft 3kts
07-Feb-18 15:56 33.677180 -117.863709 118 64ft 0kts

Navigation Log

Ident Type
Flight plan parsing failed, navigation log unavailable